Terminal Aerodrome Forecast
Issued by NWS

Home | Current Version | Previous Version | Text Only | Print | Product List | Glossary On
Versions: 1 2 3 4 5 6 7 8 9 10 11 12 13 14
000
FTUS43 KEAX 191302 AAA
TAFSTJ
TAF AMD
KSTJ 191302Z 1913/2012 18005KT 3SM BR SCT250
      TEMPO 1913/1915 1SM BR VV004
     FM191500 16010KT P6SM SCT080 BKN200
     FM200700 17011KT P6SM -SHRA BKN015=

USA.gov is the U.S. government's official web portal to all federal, state and local government web resources and services.